CheckWX is a tool to help pilots better visualize weather data.  It is not intended as a substitute for an official pre-flight weather briefing.

04:47:03 UTC

KDZJ METAR
Blairsville Airport
Blairsville, Georgia, USA
Current

12 mins ago

KDZJ 080435Z AUTO 14007KT 10SM CLR 08/03 A3030 RMK AO2 T00760030
Observed
Dec-8 @ 04:35 UTC
Wind
  • 140° at 7 KTS
Visibility
10 SM
Flight Rules
VFR
Cloud Levels
  • Clear skies
Temperature
C / 46°F
Dewpoint
C / 37°F
Humidity
71%
Altimeter
30.3" Hg
Pressure
1026.12 hPa
Previous

32 mins ago

KDZJ 080415Z AUTO 00000KT 10SM CLR 06/02 A3030 RMK AO2 T00610023
Observed
Dec-8 @ 04:15 UTC
Visibility
10 SM
Flight Rules
VFR
Cloud Levels
  • Clear skies
Temperature
C / 43°F
Dewpoint
C / 36°F
Humidity
76%
Altimeter
30.3" Hg
Pressure
1026.12 hPa
Previous

52 mins ago

KDZJ 080355Z AUTO 05003KT 10SM CLR 05/02 A3030 RMK AO2 T00550023
Observed
Dec-8 @ 03:55 UTC
Wind
  • 050° at 3 KTS
Visibility
10 SM
Flight Rules
VFR
Cloud Levels
  • Clear skies
Temperature
C / 43°F
Dewpoint
C / 36°F
Humidity
76%
Altimeter
30.3" Hg
Pressure
1026.12 hPa